• Join FlightAware (Why Join?)
  • Login
  • US Flag 
03:43AM EDT


 

Airport Tracker/Info


-or-


 

Live Flight TrackerFlight Track Log ✈ DAL5880 ✈ 26-Jul-2013 ✈ KLGA - KBOS

Flight Track Log - Related Links

Times and Time Zones

All times are in EDT time to prevent confusion due to time zone crossing. See the DAL5880 flight status page for this flight to view local times or setup timezone preferences in your user account.

Time Position Orientation Groundspeed Altitude Reporting Facility
EDT Latitude Longitude Course Direction KTS MPH feet Rate Location/Type
01:12PM 40.8333 -73.8333 48° Northeast 198 228 3,100  Level New York TRACON
01:13PM 40.8833 -73.7833 37° Northeast 256 295 6,400 3,420 Climbing New York TRACON
01:14PM 41.0394 -73.5513 41° Northeast  Level FlightAware Approximate
01:14PM 40.9500 -73.7167 37° Northeast 283 326 10,000  Level New York TRACON
01:15PM 41.1075 -73.4689 44° Northeast  Level FlightAware Approximate
01:15PM 41.0000 -73.6500 45° Northeast 316 364 13,300  Level New York TRACON
01:16PM 41.1738 -73.3838 44° Northeast  Level FlightAware Approximate
01:16PM 41.0667 -73.5667 43° Northeast 334 384 16,300  Level New York TRACON
01:17PM 41.2318 -73.3024 48° Northeast  Level FlightAware Approximate
01:18PM 41.2064 -73.3781 45° Northeast 326 375 17,000  Level Boston Center
01:19PM 41.2761 -73.2853 45° Northeast 333 383 18,400 960 Climbing Boston Center
01:20PM 41.3475 -73.1867 46° Northeast 352 405 19,000 300 Climbing Boston Center
01:21PM 41.3900 -73.0736 63° Northeast 358 412 19,000  Level Boston Center
01:22PM 41.4031 -72.9328 83° East 356 410 19,000  Level Boston Center
01:23PM 41.4036 -72.8331 90° East 369 425 19,100 960 Climbing Boston Center
01:24PM 41.3914 -72.6669 96° East 374 430 21,000 900 Climbing Boston Center
01:25PM 41.3583 -72.5397 109° East 368 423 21,000  Level Boston Center
01:26PM 41.3939 -72.4181 69° East 346 398 21,000  Level Boston Center
01:27PM 41.4394 -72.2989 63° Northeast 341 392 21,000  Level Boston Center
01:28PM 41.4267 -72.1494 96° East 309 356 21,000 -60 Level Boston Center
01:29PM 41.3994 -72.0556 111° Southeast 309 356 20,900 -1,020 Descending Boston Center
01:30PM 41.3614 -71.9172 110° East 329 379 19,000 -1,740 Descending Boston Center
01:31PM 41.3942 -71.8175 66° East 296 341 17,500 -1,620 Descending Boston Center
01:32PM 41.4686 -71.7308 41° Northeast 294 338 15,900 -1,560 Descending Boston Center
01:33PM 41.5369 -71.6497 42° Northeast 317 365 14,400 -1,320 Descending Boston Center
01:34PM 41.6094 -71.5822 35° Northeast 323 372 13,300 -1,320 Descending Boston Center
01:35PM 41.6861 -71.5339 25° Northeast 301 346 11,800 -1,200 Descending Boston Center
01:36PM 41.7503 -71.4883 28° Northeast 296 341 11,000 -420 Descending Boston Center
01:37PM 41.7933 -71.3958 58° Northeast 275 316 11,000  Level Boston Center
01:38PM 41.8153 -71.2981 73° East 280 322 11,000  Level Boston Center
01:39PM 41.8431 -71.1806 72° East 294 338 11,000  Level Boston Center
01:40PM 41.8733 -71.0850 67° East 301 346 11,000  Level Boston Center
01:41PM 41.9000 -71.0000 67° East 307 353 11,000  Level KA90
01:42PM 41.9500 -70.9000 56° Northeast 297 342 11,000  Level KA90
01:42PM 41.9644 -70.8681 59° Northeast 279 321 11,000  Level Boston Center
01:43PM 42.0008 -70.7917 57° Northeast 260 299 11,000 -600 Level Boston Center
01:44PM 42.0475 -70.7150 51° Northeast 255 293 9,800 -1,200 Descending Boston Center
01:45PM 42.0964 -70.6439 47° Northeast 255 293 8,600 -1,260 Descending Boston Center
01:46PM 42.1411 -70.5725 50° Northeast 250 288 7,400 -1,200 Descending Boston Center
01:47PM 42.1947 -70.5344 28° Northeast 218 251 6,300 -1,080 Descending Boston Center
01:49PM 42.2556 -70.5636 340° North 196 226 5,100 -600 Descending Boston Center
01:49PM 42.3203 -70.5700 356° North 196 226 5,000 -60 Descending Boston Center
01:50PM 42.3547 -70.5128 51° Northeast 163 188 5,000 -540 Level Boston Center
01:53PM 42.4000 -70.6833 290° West 219 252 3,400 -660 Descending KA90
01:54PM 42.4000 -70.7833 270° West 235 270 3,000 -420 Descending KA90